createdAt,value
2018-01-16T00:00:48.902Z,0
2018-01-16T00:01:48.629Z,0
2018-01-16T00:02:48.840Z,0
2018-01-16T00:03:48.565Z,0
2018-01-16T00:04:48.541Z,0
2018-01-16T00:05:48.815Z,0
2018-01-16T00:06:48.728Z,0
2018-01-16T00:07:48.212Z,0
2018-01-16T00:08:48.675Z,0
2018-01-16T00:09:48.649Z,0
2018-01-16T00:10:48.637Z,0
2018-01-16T00:11:48.591Z,0
2018-01-16T00:12:48.566Z,0
2018-01-16T00:13:48.538Z,0
2018-01-16T00:14:48.507Z,0
2018-01-16T00:15:48.239Z,0
2018-01-16T00:16:48.451Z,0
2018-01-16T00:17:48.189Z,0
2018-01-16T00:18:48.161Z,0
2018-01-16T00:19:48.367Z,0
2018-01-16T00:20:48.101Z,0
2018-01-16T00:21:48.319Z,0
2018-01-16T00:22:48.294Z,0
2018-01-16T00:23:48.262Z,0
2018-01-16T00:24:48.240Z,0
2018-01-16T00:25:48.209Z,0
2018-01-16T00:26:47.938Z,0
2018-01-16T00:27:47.663Z,0
2018-01-16T00:28:47.885Z,0
2018-01-16T00:29:48.098Z,0
2018-01-16T00:30:48.065Z,0
2018-01-16T00:31:47.803Z,0
2018-01-16T00:32:48.012Z,0
2018-01-16T00:33:47.989Z,0
2018-01-16T00:34:47.959Z,0
2018-01-16T00:35:47.445Z,0
2018-01-16T00:36:47.664Z,0
2018-01-16T00:37:47.875Z,0
2018-01-16T00:38:47.611Z,0
2018-01-16T00:39:47.835Z,0
2018-01-16T00:40:47.549Z,0
2018-01-16T00:41:47.521Z,0
2018-01-16T00:42:47.751Z,0
2018-01-16T00:43:47.717Z,0
2018-01-16T00:44:47.706Z,0
2018-01-16T00:45:47.414Z,0
2018-01-16T00:46:47.631Z,0
2018-01-16T00:47:47.112Z,0
2018-01-16T00:48:47.094Z,0
2018-01-16T00:49:47.060Z,0
2018-01-16T00:50:47.521Z,0
2018-01-16T00:51:47.496Z,0
2018-01-16T00:52:47.466Z,0
2018-01-16T00:53:47.190Z,0
2018-01-16T00:54:47.167Z,0
2018-01-16T00:55:47.140Z,0
2018-01-16T00:56:47.359Z,0
2018-01-16T00:57:47.331Z,0
2018-01-16T00:58:47.083Z,0
2018-01-16T00:59:47.276Z,0
2018-01-16T01:00:47.250Z,0
2018-01-16T01:01:47.222Z,0
2018-01-16T01:02:47.202Z,0
2018-01-16T01:03:47.170Z,0
2018-01-16T01:04:47.142Z,0
2018-01-16T01:05:47.116Z,0
2018-01-16T01:06:46.839Z,0
2018-01-16T01:07:47.057Z,0
2018-01-16T01:08:47.033Z,0
2018-01-16T01:09:47.549Z,0
2018-01-16T01:10:46.740Z,0
2018-01-16T01:11:46.950Z,0
2018-01-16T01:12:46.676Z,0
2018-01-16T01:13:46.647Z,0
2018-01-16T01:14:46.871Z,0
2018-01-16T01:15:46.588Z,0
2018-01-16T01:16:46.805Z,0
2018-01-16T01:17:46.781Z,0
2018-01-16T01:18:46.822Z,0
2018-01-16T01:19:46.733Z,0
2018-01-16T01:20:46.704Z,0
2018-01-16T01:21:46.428Z,0
2018-01-16T01:22:46.643Z,0
2018-01-16T01:23:46.374Z,0
2018-01-16T01:24:46.100Z,0
2018-01-16T01:25:46.608Z,0
2018-01-16T01:26:46.534Z,0
2018-01-16T01:27:46.267Z,0
2018-01-16T01:28:46.229Z,0
2018-01-16T01:29:45.958Z,0
2018-01-16T01:30:46.422Z,0
2018-01-16T01:31:46.151Z,0
2018-01-16T01:32:45.875Z,0
2018-01-16T01:33:46.098Z,0
2018-01-16T01:34:46.354Z,0
2018-01-16T01:35:46.040Z,0
2018-01-16T01:36:46.270Z,0
2018-01-16T01:37:45.983Z,0
2018-01-16T01:38:46.201Z,0
2018-01-16T01:39:46.179Z,0
2018-01-16T01:40:45.905Z,0
2018-01-16T01:41:46.117Z,0
2018-01-16T01:42:46.142Z,0
2018-01-16T01:43:46.069Z,0
2018-01-16T01:44:46.044Z,0
2018-01-16T01:45:45.767Z,0
2018-01-16T01:46:45.741Z,0
2018-01-16T01:47:45.708Z,0
2018-01-16T01:48:45.686Z,0
2018-01-16T01:49:45.158Z,0
2018-01-16T01:50:45.916Z,0
2018-01-16T01:51:45.845Z,0
2018-01-16T01:52:45.817Z,0
2018-01-16T01:53:45.541Z,0
2018-01-16T01:54:45.760Z,0
2018-01-16T01:55:45.248Z,0
2018-01-16T01:56:45.708Z,0
2018-01-16T01:57:45.686Z,0
2018-01-16T01:58:45.163Z,0
2018-01-16T01:59:45.626Z,0
2018-01-16T02:00:45.349Z,0
2018-01-16T02:01:45.326Z,0
2018-01-16T02:02:45.292Z,0
2018-01-16T02:03:45.266Z,0
2018-01-16T02:04:45.538Z,0
2018-01-16T02:05:44.964Z,0
2018-01-16T02:06:45.430Z,0
2018-01-16T02:07:45.156Z,0
2018-01-16T02:08:45.126Z,0
2018-01-16T02:09:44.853Z,0
2018-01-16T02:10:45.318Z,0
2018-01-16T02:11:45.049Z,0
2018-01-16T02:12:45.273Z,0
2018-01-16T02:13:45.240Z,0
2018-01-16T02:14:45.202Z,0
2018-01-16T02:15:45.182Z,0
2018-01-16T02:16:44.904Z,0
2018-01-16T02:17:44.877Z,0
2018-01-16T02:18:45.208Z,0
2018-01-16T02:19:44.823Z,0
2018-01-16T02:20:45.044Z,0
2018-01-16T02:21:44.520Z,0
2018-01-16T02:22:44.737Z,0
2018-01-16T02:23:44.712Z,0
2018-01-16T02:24:44.935Z,0
2018-01-16T02:25:44.667Z,0
2018-01-16T02:26:44.880Z,0
2018-01-16T02:27:44.608Z,0
2018-01-16T02:28:44.573Z,0
2018-01-16T02:29:44.548Z,0
2018-01-16T02:30:44.767Z,0
2018-01-16T02:31:44.502Z,0
2018-01-16T02:32:44.475Z,0
2018-01-16T02:33:44.438Z,0
2018-01-16T02:34:44.660Z,0
2018-01-16T02:35:44.633Z,0
2018-01-16T02:36:44.598Z,0
2018-01-16T02:37:44.579Z,0
2018-01-16T02:38:44.541Z,0
2018-01-16T02:39:44.513Z,0
2018-01-16T02:40:44.246Z,0
2018-01-16T02:41:44.466Z,0
2018-01-16T02:42:44.433Z,0
2018-01-16T02:43:44.281Z,0
2018-01-16T02:44:43.886Z,0
2018-01-16T02:45:44.355Z,0
2018-01-16T02:46:44.371Z,0
2018-01-16T02:47:44.301Z,0
2018-01-16T02:48:44.267Z,0
2018-01-16T02:49:43.997Z,0
2018-01-16T02:50:44.215Z,0
2018-01-16T02:51:43.942Z,0
2018-01-16T02:52:44.169Z,0
2018-01-16T02:53:43.879Z,0
2018-01-16T02:54:43.612Z,0
2018-01-16T02:55:44.076Z,0
2018-01-16T02:56:43.559Z,0
2018-01-16T02:57:44.018Z,0
2018-01-16T02:58:43.753Z,0
2018-01-16T02:59:43.721Z,0
2018-01-16T03:00:43.943Z,0
2018-01-16T03:01:43.671Z,0
2018-01-16T03:02:43.641Z,0
2018-01-16T03:03:43.862Z,0
2018-01-16T03:04:43.837Z,0
2018-01-16T03:05:43.556Z,0
2018-01-16T03:06:43.532Z,0
2018-01-16T03:07:43.259Z,0
2018-01-16T03:08:43.476Z,0
2018-01-16T03:09:43.696Z,0
2018-01-16T03:10:43.483Z,0
2018-01-16T03:11:43.152Z,0
2018-01-16T03:12:43.366Z,0
2018-01-16T03:13:43.583Z,0
2018-01-16T03:14:43.308Z,0
2018-01-16T03:15:43.540Z,0
2018-01-16T03:16:43.505Z,0
2018-01-16T03:17:43.477Z,0
2018-01-16T03:18:43.204Z,0
2018-01-16T03:19:43.177Z,0
2018-01-16T03:20:43.145Z,0
2018-01-16T03:21:43.124Z,0
2018-01-16T03:22:43.344Z,0
2018-01-16T03:23:43.069Z,0
2018-01-16T03:24:43.046Z,0
2018-01-16T03:25:43.265Z,0
2018-01-16T03:26:42.985Z,0
2018-01-16T03:27:43.210Z,0
2018-01-16T03:28:43.187Z,0
2018-01-16T03:29:43.158Z,0
2018-01-16T03:30:43.142Z,0
2018-01-16T03:31:43.099Z,0
2018-01-16T03:32:42.824Z,0
2018-01-16T03:33:42.802Z,0
2018-01-16T03:34:43.021Z,0
2018-01-16T03:35:42.749Z,0
2018-01-16T03:36:42.966Z,0
2018-01-16T03:37:42.940Z,0
2018-01-16T03:38:42.903Z,0
2018-01-16T03:39:42.652Z,0
2018-01-16T03:40:42.855Z,0
2018-01-16T03:41:42.584Z,0
2018-01-16T03:42:42.805Z,0
2018-01-16T03:43:42.802Z,0
2018-01-16T03:44:42.746Z,0
2018-01-16T03:45:42.720Z,0
2018-01-16T03:46:42.449Z,0
2018-01-16T03:47:42.666Z,0
2018-01-16T03:48:42.642Z,0
2018-01-16T03:49:42.613Z,0
2018-01-16T03:50:42.341Z,0
2018-01-16T03:51:42.559Z,0
2018-01-16T03:52:42.540Z,0
2018-01-16T03:53:42.508Z,0
2018-01-16T03:54:42.488Z,0
2018-01-16T03:55:42.266Z,0
2018-01-16T03:56:42.427Z,0
2018-01-16T03:57:42.400Z,0
2018-01-16T03:58:41.883Z,0
2018-01-16T03:59:42.448Z,0
2018-01-16T04:00:42.071Z,0
2018-01-16T04:01:42.298Z,0
2018-01-16T04:02:42.276Z,0
2018-01-16T04:03:41.995Z,0
2018-01-16T04:04:41.474Z,0
2018-01-16T04:05:42.237Z,0
2018-01-16T04:06:42.161Z,0
2018-01-16T04:07:42.139Z,0
2018-01-16T04:08:42.110Z,0
2018-01-16T04:09:42.074Z,0
2018-01-16T04:10:41.811Z,0
2018-01-16T04:11:41.533Z,0
2018-01-16T04:12:41.753Z,0
2018-01-16T04:13:41.972Z,0
2018-01-16T04:14:41.452Z,0
2018-01-16T04:15:41.678Z,0
2018-01-16T04:16:41.646Z,0
2018-01-16T04:17:41.615Z,0
2018-01-16T04:18:41.593Z,0
2018-01-16T04:19:41.810Z,0
2018-01-16T04:20:41.778Z,0
2018-01-16T04:21:41.263Z,0
2018-01-16T04:22:41.725Z,0
2018-01-16T04:23:41.457Z,0
2018-01-16T04:24:41.423Z,0
2018-01-16T04:25:41.401Z,0
2018-01-16T04:26:41.128Z,0
2018-01-16T04:27:41.603Z,0
2018-01-16T04:28:41.573Z,0
2018-01-16T04:29:41.291Z,0
2018-01-16T04:30:41.515Z,0
2018-01-16T04:31:41.236Z,0
2018-01-16T04:32:41.458Z,0
2018-01-16T04:33:41.434Z,0
2018-01-16T04:34:41.162Z,0
2018-01-16T04:35:41.371Z,0
2018-01-16T04:36:40.859Z,0
2018-01-16T04:37:41.322Z,0
2018-01-16T04:38:41.045Z,0
2018-01-16T04:39:41.019Z,0
2018-01-16T04:40:41.243Z,0
2018-01-16T04:41:41.217Z,0
2018-01-16T04:42:41.189Z,0
2018-01-16T04:43:40.667Z,0
2018-01-16T04:44:41.227Z,0
2018-01-16T04:45:41.101Z,0
2018-01-16T04:46:41.079Z,0
2018-01-16T04:47:41.052Z,0
2018-01-16T04:48:41.025Z,0
2018-01-16T04:49:40.994Z,0
2018-01-16T04:50:40.725Z,0
2018-01-16T04:51:40.693Z,0
2018-01-16T04:52:40.911Z,0
2018-01-16T04:53:40.882Z,0
2018-01-16T04:54:40.851Z,0
2018-01-16T04:55:40.729Z,0
2018-01-16T04:56:40.799Z,0
2018-01-16T04:57:40.769Z,0
2018-01-16T04:58:40.504Z,0
2018-01-16T04:59:40.723Z,0
2018-01-16T05:00:40.692Z,0
2018-01-16T05:01:40.665Z,0
2018-01-16T05:02:40.643Z,0
2018-01-16T05:03:40.370Z,0
2018-01-16T05:04:40.582Z,0
2018-01-16T05:05:40.304Z,0
2018-01-16T05:06:40.278Z,0
2018-01-16T05:07:40.249Z,0
2018-01-16T05:08:40.472Z,0
2018-01-16T05:09:40.195Z,0
2018-01-16T05:10:40.407Z,0
2018-01-16T05:11:40.384Z,0
2018-01-16T05:12:40.111Z,0
2018-01-16T05:13:39.837Z,0
2018-01-16T05:14:40.301Z,0
2018-01-16T05:15:40.029Z,0
2018-01-16T05:16:40.245Z,0
2018-01-16T05:17:39.974Z,0
2018-01-16T05:18:40.190Z,0
2018-01-16T05:19:39.673Z,0
2018-01-16T05:20:40.145Z,0
2018-01-16T05:21:39.869Z,0
2018-01-16T05:22:39.839Z,0
2018-01-16T05:23:40.052Z,0
2018-01-16T05:24:40.027Z,0
2018-01-16T05:25:39.508Z,0
2018-01-16T05:26:39.727Z,0
2018-01-16T05:27:39.967Z,0
2018-01-16T05:28:39.673Z,0
2018-01-16T05:29:39.649Z,0
2018-01-16T05:30:39.615Z,0
2018-01-16T05:31:39.831Z,0
2018-01-16T05:32:39.866Z,0
2018-01-16T05:33:39.287Z,0
2018-01-16T05:34:39.505Z,0
2018-01-16T05:35:39.476Z,0
2018-01-16T05:36:39.451Z,0
2018-01-16T05:37:39.670Z,0
2018-01-16T05:38:39.646Z,0
2018-01-16T05:39:39.622Z,0
2018-01-16T05:40:39.586Z,0
2018-01-16T05:41:39.561Z,0
2018-01-16T05:42:39.541Z,0
2018-01-16T05:43:39.511Z,0
2018-01-16T05:44:39.479Z,0
2018-01-16T05:45:39.454Z,0
2018-01-16T05:46:39.280Z,0
2018-01-16T05:47:39.399Z,0
2018-01-16T05:48:39.133Z,0
2018-01-16T05:49:39.340Z,0
2018-01-16T05:50:39.319Z,0
2018-01-16T05:51:39.042Z,0
2018-01-16T05:52:39.398Z,0
2018-01-16T05:53:39.235Z,0
2018-01-16T05:54:39.207Z,0
2018-01-16T05:55:38.939Z,0
2018-01-16T05:56:39.157Z,0
2018-01-16T05:57:39.123Z,0
2018-01-16T05:58:38.854Z,0
2018-01-16T05:59:39.067Z,0
2018-01-16T06:00:39.038Z,0
2018-01-16T06:01:39.016Z,0
2018-01-16T06:02:38.982Z,0
2018-01-16T06:03:38.954Z,0
2018-01-16T06:04:38.929Z,0
2018-01-16T06:05:38.900Z,0
2018-01-16T06:06:38.872Z,0
2018-01-16T06:07:38.852Z,0
2018-01-16T06:08:38.814Z,0
2018-01-16T06:09:38.788Z,0
2018-01-16T06:10:38.762Z,0
2018-01-16T06:11:38.482Z,0
2018-01-16T06:12:38.701Z,0
2018-01-16T06:13:38.724Z,0
2018-01-16T06:14:38.642Z,0
2018-01-16T06:15:38.376Z,0
2018-01-16T06:16:38.645Z,0
2018-01-16T06:17:38.558Z,0
2018-01-16T06:18:38.045Z,0
2018-01-16T06:19:38.513Z,0
2018-01-16T06:20:38.235Z,0
2018-01-16T06:21:38.447Z,0
2018-01-16T06:22:38.423Z,0
2018-01-16T06:23:38.156Z,0
2018-01-16T06:24:38.122Z,0
2018-01-16T06:25:38.342Z,0
2018-01-16T06:26:38.065Z,0
2018-01-16T06:27:38.282Z,0
2018-01-16T06:28:38.259Z,0
2018-01-16T06:29:37.977Z,0
2018-01-16T06:30:38.211Z,0
2018-01-16T06:31:38.562Z,0
2018-01-16T06:32:38.995Z,0
2018-01-16T06:33:38.434Z,0
2018-01-16T06:34:38.987Z,0
2018-01-16T06:35:37.875Z,0
2018-01-16T06:36:38.036Z,0
2018-01-16T06:37:37.756Z,0
2018-01-16T06:38:37.739Z,0
2018-01-16T06:39:37.953Z,0
2018-01-16T06:40:37.686Z,0
2018-01-16T06:41:37.646Z,0
2018-01-16T06:42:37.867Z,0
2018-01-16T06:43:37.941Z,0
2018-01-16T06:44:37.821Z,0
2018-01-16T06:45:37.788Z,0
2018-01-16T06:46:37.765Z,0
2018-01-16T06:47:37.762Z,0
2018-01-16T06:48:37.454Z,0
2018-01-16T06:49:37.679Z,0
2018-01-16T06:50:37.642Z,0
2018-01-16T06:51:37.376Z,0
2018-01-16T06:52:37.589Z,0
2018-01-16T06:53:37.319Z,0
2018-01-16T06:54:37.293Z,0
2018-01-16T06:55:37.261Z,0
2018-01-16T06:56:37.237Z,0
2018-01-16T06:57:37.607Z,4
2018-01-16T06:58:37.177Z,4
2018-01-16T06:59:37.404Z,4
2018-01-16T07:00:36.836Z,0
2018-01-16T07:01:37.347Z,4
2018-01-16T07:02:36.826Z,4
2018-01-16T07:03:37.285Z,4
2018-01-16T07:04:37.260Z,0
2018-01-16T07:05:37.233Z,0
2018-01-16T07:06:37.209Z,4
2018-01-16T07:07:37.175Z,4
2018-01-16T07:08:37.151Z,8
2018-01-16T07:09:36.935Z,8
2018-01-16T07:10:37.140Z,4
2018-01-16T07:11:36.927Z,12
2018-01-16T07:12:37.034Z,12
2018-01-16T07:13:37.014Z,16
2018-01-16T07:14:36.982Z,16
2018-01-16T07:15:36.718Z,12
2018-01-16T07:16:36.930Z,12
2018-01-16T07:17:36.908Z,16
2018-01-16T07:18:36.876Z,16
2018-01-16T07:19:36.601Z,16
2018-01-16T07:20:36.572Z,24
2018-01-16T07:21:36.792Z,48
2018-01-16T07:22:36.882Z,92
2018-01-16T07:23:36.495Z,128
2018-01-16T07:24:36.711Z,136
2018-01-16T07:25:36.678Z,124
2018-01-16T07:26:36.415Z,136
2018-01-16T07:27:36.379Z,164
2018-01-16T07:28:36.593Z,148
2018-01-16T07:29:36.575Z,132
2018-01-16T07:30:36.545Z,124
2018-01-16T07:31:36.513Z,156
2018-01-16T07:32:36.479Z,232
2018-01-16T07:33:36.464Z,292
2018-01-16T07:34:35.941Z,300
2018-01-16T07:35:36.157Z,296
2018-01-16T07:36:36.123Z,364
2018-01-16T07:37:36.339Z,416
2018-01-16T07:38:36.316Z,460
2018-01-16T07:39:36.294Z,492
2018-01-16T07:40:36.258Z,516
2018-01-16T07:41:35.988Z,560
2018-01-16T07:42:35.709Z,576
2018-01-16T07:43:36.177Z,568
2018-01-16T07:44:35.897Z,608
2018-01-16T07:45:35.627Z,648
2018-01-16T07:46:35.599Z,644
2018-01-16T07:47:35.819Z,636
2018-01-16T07:48:36.038Z,656
2018-01-16T07:49:35.761Z,724
2018-01-16T07:50:35.978Z,776
2018-01-16T07:51:35.709Z,808
2018-01-16T07:52:35.674Z,852
2018-01-16T07:53:35.897Z,916
2018-01-16T07:54:35.373Z,940
2018-01-16T07:55:35.842Z,804
2018-01-16T07:56:35.815Z,852
2018-01-16T07:57:35.297Z,696
2018-01-16T07:58:35.751Z,492
2018-01-16T07:59:35.725Z,716
2018-01-16T08:00:35.208Z,1528
2018-01-16T08:01:35.675Z,2108
2018-01-16T08:02:35.399Z,2224
2018-01-16T08:03:35.616Z,2304
2018-01-16T08:04:35.352Z,2084
2018-01-16T08:05:35.558Z,1500
2018-01-16T08:06:36.687Z,1008
2018-01-16T08:07:35.566Z,760
2018-01-16T08:08:35.973Z,848
2018-01-16T08:09:35.395Z,1420
2018-01-16T08:10:37.558Z,1440
2018-01-16T08:11:36.379Z,1116
2018-01-16T08:12:36.057Z,884
2018-01-16T08:13:35.396Z,1068
2018-01-16T08:14:35.162Z,840
2018-01-16T08:15:36.970Z,592
2018-01-16T08:16:37.118Z,872
2018-01-16T08:17:37.021Z,1004
2018-01-16T08:18:36.991Z,840
2018-01-16T08:19:37.247Z,904
2018-01-16T08:20:37.256Z,1052
2018-01-16T08:21:37.801Z,1152
2018-01-16T08:22:37.612Z,1296
2018-01-16T08:23:36.208Z,1424
2018-01-16T08:24:36.547Z,1716
2018-01-16T08:25:36.609Z,1904
2018-01-16T08:26:37.071Z,2160
2018-01-16T08:27:36.802Z,2612
2018-01-16T08:28:37.430Z,2844
2018-01-16T08:29:37.199Z,3064
2018-01-16T08:30:37.548Z,3396
2018-01-16T08:31:36.721Z,3572
2018-01-16T08:32:36.948Z,3108
2018-01-16T08:33:37.383Z,2708
2018-01-16T08:34:36.839Z,2248
2018-01-16T08:35:36.826Z,1832
2018-01-16T08:36:36.915Z,2140
2018-01-16T08:37:36.813Z,2008
2018-01-16T08:38:36.569Z,2496
2018-01-16T08:39:36.372Z,2172
2018-01-16T08:40:36.828Z,2452
2018-01-16T08:41:36.291Z,3028
2018-01-16T08:42:36.487Z,3332
2018-01-16T08:43:36.368Z,4420
2018-01-16T08:44:35.863Z,3492
2018-01-16T08:45:36.925Z,3968
2018-01-16T08:46:36.271Z,3536
2018-01-16T08:47:35.908Z,4212
2018-01-16T08:48:36.547Z,5012
2018-01-16T08:49:35.909Z,5236
2018-01-16T08:50:36.741Z,4652
2018-01-16T08:51:36.477Z,4636
2018-01-16T08:52:36.176Z,4372
2018-01-16T08:53:36.093Z,4268
2018-01-16T08:54:36.484Z,5352
2018-01-16T08:55:36.373Z,6612
2018-01-16T08:56:36.067Z,8844
2018-01-16T08:57:36.785Z,10148
2018-01-16T08:58:36.756Z,9612
2018-01-16T08:59:36.646Z,7188
2018-01-16T09:00:36.243Z,7200
2018-01-16T09:01:36.442Z,6540
2018-01-16T09:02:36.327Z,5792
2018-01-16T09:03:36.504Z,4320
2018-01-16T09:04:36.287Z,3560
2018-01-16T09:05:35.919Z,3832
2018-01-16T09:06:36.067Z,3676
2018-01-16T09:07:35.979Z,3692
2018-01-16T09:08:35.763Z,3612
2018-01-16T09:09:36.354Z,3648
2018-01-16T09:10:36.506Z,3960
2018-01-16T09:11:35.139Z,4732
2018-01-16T09:12:35.237Z,5120
2018-01-16T09:13:35.444Z,4856
2018-01-16T09:14:33.674Z,4404
2018-01-16T09:15:33.706Z,3960
2018-01-16T09:16:33.381Z,4024
2018-01-16T09:17:33.595Z,3944
2018-01-16T09:18:33.326Z,3756
2018-01-16T09:19:33.544Z,3120
2018-01-16T09:20:33.515Z,2604
2018-01-16T09:21:33.494Z,2644
2018-01-16T09:22:33.465Z,2904
2018-01-16T09:23:33.191Z,3096
2018-01-16T09:24:33.414Z,3532
2018-01-16T09:25:33.389Z,4768
2018-01-16T09:26:33.360Z,5280
2018-01-16T09:27:32.836Z,3808
2018-01-16T09:28:33.059Z,2708
2018-01-16T09:29:33.029Z,2580
2018-01-16T09:30:33.303Z,3528
2018-01-16T09:31:33.246Z,3928
2018-01-16T09:32:33.196Z,3308
2018-01-16T09:33:33.169Z,3532
2018-01-16T09:34:33.140Z,4220
2018-01-16T09:35:33.112Z,4356
2018-01-16T09:36:32.860Z,4236
2018-01-16T09:37:33.057Z,4360
2018-01-16T09:38:32.784Z,4468
2018-01-16T09:39:32.512Z,3920
2018-01-16T09:40:32.727Z,3560
2018-01-16T09:41:32.718Z,3752
2018-01-16T09:42:32.676Z,3904
2018-01-16T09:43:32.900Z,4516
2018-01-16T09:44:32.874Z,4612
2018-01-16T09:45:32.837Z,4304
2018-01-16T09:46:32.564Z,5732
2018-01-16T09:47:32.791Z,7236
2018-01-16T09:48:32.518Z,9528
2018-01-16T09:49:32.737Z,11500
2018-01-16T09:50:32.716Z,9972
2018-01-16T09:51:32.691Z,8048
2018-01-16T09:52:32.161Z,5876
2018-01-16T09:53:32.385Z,4456
2018-01-16T09:54:32.689Z,4292
2018-01-16T09:55:32.573Z,7512
2018-01-16T09:56:32.550Z,6988
2018-01-16T09:57:32.527Z,3300
2018-01-16T09:58:32.498Z,1580
2018-01-16T09:59:32.220Z,1188
2018-01-16T10:00:32.445Z,1144
2018-01-16T10:01:32.168Z,1184
2018-01-16T10:02:32.292Z,1136
2018-01-16T10:03:32.751Z,1136
2018-01-16T10:04:32.457Z,1428
2018-01-16T10:05:32.890Z,2168
2018-01-16T10:06:32.280Z,1964
2018-01-16T10:07:31.751Z,1880
2018-01-16T10:08:31.969Z,1592
2018-01-16T10:09:32.297Z,1520
2018-01-16T10:10:31.946Z,1668
2018-01-16T10:11:32.796Z,1452
2018-01-16T10:12:32.101Z,1324
2018-01-16T10:13:31.846Z,1428
2018-01-16T10:14:32.070Z,1508
2018-01-16T10:15:32.392Z,1552
2018-01-16T10:16:31.973Z,1792
2018-01-16T10:17:31.458Z,1536
2018-01-16T10:18:31.681Z,1432
2018-01-16T10:19:31.883Z,1364
2018-01-16T10:20:31.617Z,1456
2018-01-16T10:21:31.986Z,1448
2018-01-16T10:22:31.795Z,1504
2018-01-16T10:23:31.767Z,1628
2018-01-16T10:24:31.244Z,1760
2018-01-16T10:25:31.704Z,2156
2018-01-16T10:26:31.677Z,2852
2018-01-16T10:27:31.649Z,3552
2018-01-16T10:28:31.617Z,4416
2018-01-16T10:29:32.506Z,4748
2018-01-16T10:30:31.565Z,4444
2018-01-16T10:31:31.529Z,4876
2018-01-16T10:32:31.499Z,4628
2018-01-16T10:33:31.221Z,4628
2018-01-16T10:34:31.196Z,5132
2018-01-16T10:35:31.436Z,5720
2018-01-16T10:36:31.381Z,5600
2018-01-16T10:37:31.201Z,6312
2018-01-16T10:38:31.320Z,7416
2018-01-16T10:39:31.043Z,8388
2018-01-16T10:40:31.252Z,8836
2018-01-16T10:41:31.231Z,9056
2018-01-16T10:42:31.779Z,9828
2018-01-16T10:43:31.128Z,10488
2018-01-16T10:44:31.144Z,10172
2018-01-16T10:45:31.628Z,9536
2018-01-16T10:46:31.087Z,9224
2018-01-16T10:47:30.804Z,8468
2018-01-16T10:48:31.023Z,8264
2018-01-16T10:49:30.747Z,7300
2018-01-16T10:50:30.965Z,6188
2018-01-16T10:51:30.941Z,5036
2018-01-16T10:52:30.898Z,4228
2018-01-16T10:53:30.876Z,4260
2018-01-16T10:54:30.850Z,4296
2018-01-16T10:55:30.820Z,4780
2018-01-16T10:56:30.297Z,5240
2018-01-16T10:57:30.266Z,5552
2018-01-16T10:58:30.770Z,6084
2018-01-16T10:59:30.700Z,6384
2018-01-16T11:00:30.432Z,6892
2018-01-16T11:01:30.647Z,7124
2018-01-16T11:02:30.364Z,7268
2018-01-16T11:03:30.341Z,7436
2018-01-16T11:04:30.066Z,7616
2018-01-16T11:05:30.279Z,7648
2018-01-16T11:06:30.007Z,7108
2018-01-16T11:07:30.469Z,6876
2018-01-16T11:08:30.435Z,6712
2018-01-16T11:09:30.405Z,5884
2018-01-16T11:10:30.387Z,5412
2018-01-16T11:11:30.995Z,6864
2018-01-16T11:12:30.367Z,8404
2018-01-16T11:13:30.421Z,9240
2018-01-16T11:14:29.772Z,10688
2018-01-16T11:15:30.232Z,11472
2018-01-16T11:16:29.959Z,11176
2018-01-16T11:17:30.177Z,11416
2018-01-16T11:18:29.902Z,11336
2018-01-16T11:19:29.874Z,12152
2018-01-16T11:20:30.095Z,13632
2018-01-16T11:21:29.816Z,14732
2018-01-16T11:22:29.791Z,15424
2018-01-16T11:23:30.009Z,11468
2018-01-16T11:24:29.342Z,11264
2018-01-16T11:25:29.958Z,9848
2018-01-16T11:26:29.676Z,8640
2018-01-16T11:27:29.891Z,7616
2018-01-16T11:28:29.862Z,7072
2018-01-16T11:29:29.840Z,7288
2018-01-16T11:30:29.808Z,7788
2018-01-16T11:31:30.777Z,8392
2018-01-16T11:32:29.509Z,8700
2018-01-16T11:33:29.882Z,8924
2018-01-16T11:34:29.452Z,9440
2018-01-16T11:35:29.666Z,9404
2018-01-16T11:36:29.395Z,8828
2018-01-16T11:37:29.615Z,7612
2018-01-16T11:38:29.583Z,7404
2018-01-16T11:39:29.307Z,7316
2018-01-16T11:40:29.275Z,7224
2018-01-16T11:41:29.251Z,7208
2018-01-16T11:42:29.466Z,7696
2018-01-16T11:43:29.446Z,8472
2018-01-16T11:44:28.733Z,9668
2018-01-16T11:45:29.385Z,10440
2018-01-16T11:46:29.352Z,9376
2018-01-16T11:47:29.340Z,9320
2018-01-16T11:48:29.294Z,8084
2018-01-16T11:49:28.784Z,6452
2018-01-16T11:50:29.243Z,5512
2018-01-16T11:51:29.215Z,5036
2018-01-16T11:52:29.196Z,5064
2018-01-16T11:53:28.908Z,5220
2018-01-16T11:54:28.635Z,5316
2018-01-16T11:55:29.099Z,5560
2018-01-16T11:56:29.071Z,5824
2018-01-16T11:57:29.145Z,6208
2018-01-16T11:58:28.769Z,6932
2018-01-16T11:59:28.739Z,7660
2018-01-16T12:00:28.969Z,7792
2018-01-16T12:01:28.681Z,7676
2018-01-16T12:02:28.904Z,6916
2018-01-16T12:03:28.871Z,7084
2018-01-16T12:04:28.595Z,7328
2018-01-16T12:05:28.322Z,8044
2018-01-16T12:06:28.621Z,9388
2018-01-16T12:07:28.513Z,10388
2018-01-16T12:08:29.146Z,10684
2018-01-16T12:09:28.700Z,11724
2018-01-16T12:10:28.426Z,12704
2018-01-16T12:11:28.647Z,11468
2018-01-16T12:12:28.122Z,9772
2018-01-16T12:13:28.094Z,9388
2018-01-16T12:14:28.560Z,8036
2018-01-16T12:15:28.281Z,8108
2018-01-16T12:16:28.511Z,7376
2018-01-16T12:17:28.473Z,6992
2018-01-16T12:18:28.446Z,6672
2018-01-16T12:19:28.420Z,6524
2018-01-16T12:20:28.393Z,6980
2018-01-16T12:21:28.368Z,6904
2018-01-16T12:22:28.090Z,5820
2018-01-16T12:23:28.057Z,6384
2018-01-16T12:24:28.028Z,9364
2018-01-16T12:25:28.002Z,9212
2018-01-16T12:26:27.815Z,7728
2018-01-16T12:27:28.198Z,7980
2018-01-16T12:28:27.929Z,6980
2018-01-16T12:29:27.648Z,8696
2018-01-16T12:30:27.867Z,7200
2018-01-16T12:31:28.088Z,6724
2018-01-16T12:32:28.058Z,9528
2018-01-16T12:33:28.028Z,6596
2018-01-16T12:34:27.500Z,5760
2018-01-16T12:35:28.888Z,5268
2018-01-16T12:36:28.443Z,6332
2018-01-16T12:37:27.670Z,5908
2018-01-16T12:38:27.637Z,5528
2018-01-16T12:39:27.615Z,6516
2018-01-16T12:40:27.828Z,7472
2018-01-16T12:41:27.798Z,6068
2018-01-16T12:42:27.530Z,7812
2018-01-16T12:43:27.498Z,7416
2018-01-16T12:44:27.471Z,5592
2018-01-16T12:45:27.449Z,6036
2018-01-16T12:46:27.416Z,6136
2018-01-16T12:47:27.629Z,5780
2018-01-16T12:48:27.651Z,7056
2018-01-16T12:49:27.297Z,7936
2018-01-16T12:50:27.300Z,9584
2018-01-16T12:51:27.268Z,8400
2018-01-16T12:52:27.250Z,7604
2018-01-16T12:53:27.463Z,10072
2018-01-16T12:54:27.532Z,9480
2018-01-16T12:55:26.914Z,10408
2018-01-16T12:56:27.379Z,9280
2018-01-16T12:57:27.112Z,8820
2018-01-16T12:58:26.843Z,7516
2018-01-16T12:59:27.054Z,7664
2018-01-16T13:00:27.024Z,9520
2018-01-16T13:01:26.992Z,9008
2018-01-16T13:02:27.219Z,6756
2018-01-16T13:03:26.941Z,7152
2018-01-16T13:04:26.916Z,7192
2018-01-16T13:05:27.132Z,7248
2018-01-16T13:06:26.869Z,7980
2018-01-16T13:07:26.831Z,6308
2018-01-16T13:08:27.050Z,5232
2018-01-16T13:09:27.033Z,4216
2018-01-16T13:10:27.045Z,3732
2018-01-16T13:11:26.963Z,3400
2018-01-16T13:12:26.966Z,3456
2018-01-16T13:13:27.498Z,4184
2018-01-16T13:14:26.641Z,4004
2018-01-16T13:15:26.611Z,3212
2018-01-16T13:16:26.577Z,2984
2018-01-16T13:17:26.810Z,4072
2018-01-16T13:18:26.530Z,5096
2018-01-16T13:19:26.496Z,5484
2018-01-16T13:20:26.721Z,4912
2018-01-16T13:21:26.692Z,3500
2018-01-16T13:22:26.661Z,3704
2018-01-16T13:23:26.383Z,5356
2018-01-16T13:24:26.354Z,4976
2018-01-16T13:25:26.682Z,5192
2018-01-16T13:26:26.609Z,4132
2018-01-16T13:27:26.523Z,2900
2018-01-16T13:28:26.487Z,3016
2018-01-16T13:29:26.462Z,3232
2018-01-16T13:30:26.435Z,2404
2018-01-16T13:31:26.415Z,2152
2018-01-16T13:32:26.465Z,3020
2018-01-16T13:33:26.111Z,3540
2018-01-16T13:34:26.326Z,4088
2018-01-16T13:35:26.295Z,4480
2018-01-16T13:36:26.315Z,4960
2018-01-16T13:37:26.460Z,4012
2018-01-16T13:38:26.210Z,3548
2018-01-16T13:39:25.695Z,3748
2018-01-16T13:40:26.156Z,4220
2018-01-16T13:41:25.885Z,4388
2018-01-16T13:42:25.853Z,4332
2018-01-16T13:43:26.077Z,4484
2018-01-16T13:44:26.045Z,4632
2018-01-16T13:45:26.022Z,4992
2018-01-16T13:46:25.745Z,5296
2018-01-16T13:47:25.958Z,6452
2018-01-16T13:48:25.939Z,7892
2018-01-16T13:49:25.718Z,10004
2018-01-16T13:50:25.883Z,10780
2018-01-16T13:51:25.648Z,10744
2018-01-16T13:52:25.574Z,10524
2018-01-16T13:53:25.792Z,9964
2018-01-16T13:54:25.767Z,9080
2018-01-16T13:55:25.742Z,9096
2018-01-16T13:56:25.713Z,10584
2018-01-16T13:57:25.686Z,10588
2018-01-16T13:58:25.407Z,10916
2018-01-16T13:59:25.415Z,12168
2018-01-16T14:00:25.601Z,12300
2018-01-16T14:01:25.428Z,11664
2018-01-16T14:02:25.547Z,9888